^^
Grace C. Lehan Memorial Weather Station Historical Data
Daily Summary for August 14, 2022 Units:  English    Metric   Both
Daily Weekly Monthly Yearly
  High: Low: Average:
Temperature: 86.1 °F 56.5 °F 72.3 °F
Dew Point: 60.6 °F 53 °F 56.4 °F
Humidity: 92.5% 36.2% 61%
Wind Speed: 0.1mph 0mph 0mph
Wind Gust: 2mph - -
Wind- - NW
Pressure: 30.06 in 29.96 in -
Precipitation: 0.00 in    
 
 
Tabular Data for August 14, 2022
Time Temperature Dew Point Pressure Wind Wind Speed Wind Gust Humidity Rainfall Rate (Hourly) solar
00:00 64.7 °F 56.2 °F 30.04 in Calm     74% 0.00 in 0 W/m2
00:09 64.4 °F 56.3 °F 30.04 in Calm     75% 0.00 in 0 W/m2
00:14 64.2 °F 56.1 °F 30.04 in Calm     75% 0.00 in 0 W/m2
00:19 64 °F 55.9 °F 30.04 in Calm     75% 0.00 in 0 W/m2
00:24 63.8 °F 55.8 °F 30.04 in Calm     75% 0.00 in 0 W/m2
00:29 63.7 °F 56 °F 30.04 in Calm     76% 0.00 in 0 W/m2
00:34 63.5 °F 55.6 °F 30.04 in Calm     75.5% 0.00 in 0 W/m2
00:39 63.3 °F 55.3 °F 30.04 in Calm     75% 0.00 in 0 W/m2
00:44 63.2 °F 55.1 °F 30.04 in Calm     75% 0.00 in 0 W/m2
00:49 63.1 °F 55.2 °F 30.04 in Calm     75.6% 0.00 in 0 W/m2
00:54 62.8 °F 55.1 °F 30.04 in Calm     75.8% 0.00 in 0 W/m2
00:59 62.6 °F 55 °F 30.04 in Calm     76% 0.00 in 0 W/m2
01:04 62.5 °F 54.6 °F 30.04 in Calm     75.5% 0.00 in 0 W/m2
01:09 62.3 °F 54.6 °F 30.03 in Calm     76% 0.00 in 0 W/m2
01:14 62.2 °F 54.8 °F 30.03 in Calm     76.8% 0.00 in 0 W/m2
01:19 62.1 °F 54.8 °F 30.03 in Calm     77% 0.00 in 0 W/m2
01:24 62 °F 54.7 °F 30.03 in Calm     77% 0.00 in 0 W/m2
01:29 61.8 °F 54.6 °F 30.03 in Calm     77% 0.00 in 0 W/m2
01:34 61.7 °F 54.7 °F 30.03 in Calm     77.7% 0.00 in 0 W/m2
01:39 61.6 °F 54.7 °F 30.03 in Calm     78% 0.00 in 0 W/m2
01:44 61.4 °F 54.7 °F 30.03 in Calm     78.6% 0.00 in 0 W/m2
01:49 61.2 °F 54.9 °F 30.03 in Calm     79.8% 0.00 in 0 W/m2
01:54 60.9 °F 54.7 °F 30.03 in Calm     80% 0.00 in 0 W/m2
01:59 60.7 °F 54.5 °F 30.03 in Calm     80% 0.00 in 0 W/m2
02:04 60.5 °F 54.4 °F 30.03 in Calm     80% 0.00 in 0 W/m2
02:09 60.4 °F 54.2 °F 30.03 in Calm     80% 0.00 in 0 W/m2
02:14 60.3 °F 54.4 °F 30.03 in Calm     80.8% 0.00 in 0 W/m2
02:19 60.3 °F 54.4 °F 30.03 in Calm     81% 0.00 in 0 W/m2
02:24 60.2 °F 54.6 °F 30.03 in Calm     81.6% 0.00 in 0 W/m2
02:29 60.2 °F 54.7 °F 30.03 in Calm     82% 0.00 in 0 W/m2
02:34 60.2 °F 54.7 °F 30.03 in Calm     82% 0.00 in 0 W/m2
02:39 60.2 °F 54.7 °F 30.03 in Calm     82% 0.00 in 0 W/m2
02:44 60.1 °F 54.6 °F 30.03 in Calm     82% 0.00 in 0 W/m2
02:49 60 °F 54.5 °F 30.03 in Calm     82% 0.00 in 0 W/m2
02:54 60 °F 54.5 °F 30.03 in Calm     82% 0.00 in 0 W/m2
02:59 59.9 °F 54.4 °F 30.03 in Calm     82% 0.00 in 0 W/m2
03:04 59.7 °F 54.2 °F 30.03 in Calm     82% 0.00 in 0 W/m2
03:09 59.6 °F 54.4 °F 30.03 in Calm     82.9% 0.00 in 0 W/m2
03:14 59.4 °F 54.3 °F 30.03 in NW 0.1 mph 2 mph 83% 0.00 in 0 W/m2
03:19 59.3 °F 54.2 °F 30.03 in Calm   2 mph 83% 0.00 in 0 W/m2
03:24 59.2 °F 54.1 °F 30.03 in Calm   2 mph 83.3% 0.00 in 0 W/m2
03:29 59.1 °F 54.2 °F 30.03 in Calm   2 mph 84% 0.00 in 0 W/m2
03:34 58.9 °F 54.1 °F 30.03 in Calm   2 mph 84% 0.00 in 0 W/m2
03:39 58.7 °F 54.1 °F 30.03 in Calm     84.6% 0.00 in 0 W/m2
03:44 58.6 °F 54.1 °F 30.03 in Calm     85% 0.00 in 0 W/m2
03:49 58.4 °F 53.9 °F 30.03 in Calm     85% 0.00 in 0 W/m2
03:54 58.3 °F 54 °F 30.03 in Calm     85.5% 0.00 in 0 W/m2
03:59 58.2 °F 54 °F 30.03 in Calm     86% 0.00 in 0 W/m2
04:09 58 °F 53.9 °F 30.03 in Calm     86% 0.00 in 0 W/m2
04:14 58 °F 53.9 °F 30.03 in Calm     86.2% 0.00 in 0 W/m2
04:19 57.9 °F 54 °F 30.03 in Calm     87% 0.00 in 0 W/m2
04:24 57.8 °F 53.9 °F 30.04 in Calm     87% 0.00 in 0 W/m2
04:29 57.7 °F 53.8 °F 30.04 in Calm     87% 0.00 in 0 W/m2
04:34 57.6 °F 53.8 °F 30.04 in Calm     87% 0.00 in 0 W/m2
04:39 57.5 °F 53.7 °F 30.04 in Calm     87.1% 0.00 in 0 W/m2
04:44 57.4 °F 53.9 °F 30.04 in Calm     88% 0.00 in 0 W/m2
04:49 57.3 °F 53.8 °F 30.04 in Calm     88% 0.00 in 0 W/m2
04:54 57.4 °F 54.1 °F 30.04 in Calm     88.7% 0.00 in 0 W/m2
04:59 57.4 °F 54.2 °F 30.04 in Calm     89% 0.00 in 0 W/m2
05:04 57.3 °F 54.1 °F 30.04 in Calm     89% 0.00 in 0 W/m2
05:09 57.3 °F 54.1 °F 30.04 in Calm     89% 0.00 in 0 W/m2
05:14 57.2 °F 54 °F 30.04 in Calm     89% 0.00 in 0 W/m2
05:19 57.2 °F 53.9 °F 30.04 in Calm     89% 0.00 in 0 W/m2
05:24 57.1 °F 54.1 °F 30.04 in Calm     89.6% 0.00 in 0 W/m2
05:29 57.1 °F 54.2 °F 30.04 in Calm     90% 0.00 in 0 W/m2
05:34 57.1 °F 54.2 °F 30.05 in Calm     90% 0.00 in 0 W/m2
05:39 57.1 °F 54.2 °F 30.05 in Calm     90% 0.00 in 0 W/m2
05:44 57.1 °F 54.2 °F 30.05 in Calm     90% 0.00 in 0 W/m2
05:49 57.1 °F 54.2 °F 30.05 in Calm     90% 0.00 in 0 W/m2
05:54 57 °F 54.1 °F 30.05 in Calm     90% 0.00 in 0 W/m2
05:59 56.8 °F 53.9 °F 30.05 in Calm     90% 0.00 in 0 W/m2
06:04 56.7 °F 53.8 °F 30.05 in Calm     90% 0.00 in 5 W/m2
06:09 56.6 °F 53.7 °F 30.05 in Calm     90% 0.00 in 7 W/m2
06:14 56.6 °F 53.9 °F 30.05 in Calm     90.6% 0.00 in 11 W/m2
06:19 56.5 °F 53.9 °F 30.05 in Calm     91% 0.00 in 16 W/m2
06:24 56.5 °F 53.9 °F 30.05 in Calm     91% 0.00 in 23 W/m2
06:29 56.5 °F 53.9 °F 30.05 in Calm     91% 0.00 in 28 W/m2
06:34 56.5 °F 53.9 °F 30.05 in Calm     91% 0.00 in 35 W/m2
06:39 56.5 °F 53.9 °F 30.05 in Calm     91% 0.00 in 42 W/m2
06:44 56.6 °F 54 °F 30.05 in Calm     91% 0.00 in 88 W/m2
06:49 56.8 °F 54.5 °F 30.05 in Calm     91.8% 0.00 in 128 W/m2
06:54 57.2 °F 54.9 °F 30.05 in Calm     92% 0.00 in 179 W/m2
06:59 57.9 °F 55.7 °F 30.05 in Calm     92.5% 0.00 in 199 W/m2
07:04 58.7 °F 56.3 °F 30.05 in Calm     92% 0.00 in 216 W/m2
07:09 59.7 °F 57.3 °F 30.05 in Calm     91.6% 0.00 in 253 W/m2
07:14 60.9 °F 57.9 °F 30.05 in Calm     89.9% 0.00 in 267 W/m2
07:19 62.1 °F 58.4 °F 30.06 in Calm     87.6% 0.00 in 220 W/m2
07:24 63.5 °F 58.6 °F 30.06 in Calm     84.1% 0.00 in 232 W/m2
07:29 64.6 °F 58.8 °F 30.06 in Calm     81.4% 0.00 in 250 W/m2
07:34 65.4 °F 58.8 °F 30.05 in Calm     79.1% 0.00 in 269 W/m2
07:39 65.9 °F 58.7 °F 30.06 in Calm     77.3% 0.00 in 285 W/m2
07:44 66.5 °F 58.6 °F 30.06 in Calm     75.7% 0.00 in 302 W/m2
07:49 66.9 °F 58.5 °F 30.06 in Calm     74.5% 0.00 in 320 W/m2
07:54 67.4 °F 59.1 °F 30.06 in Calm     74.7% 0.00 in 338 W/m2
07:59 67.8 °F 58.2 °F 30.06 in Calm     71.2% 0.00 in 359 W/m2
08:09 68.6 °F 58.8 °F 30.06 in Calm     70.9% 0.00 in 394 W/m2
08:14 69.2 °F 58.8 °F 30.06 in Calm     69.5% 0.00 in 408 W/m2
08:19 69.8 °F 59.2 °F 30.06 in Calm     68.8% 0.00 in 427 W/m2
08:24 70.3 °F 58.7 °F 30.06 in Calm     66.7% 0.00 in 441 W/m2
08:29 70.6 °F 58.5 °F 30.06 in Calm     65.7% 0.00 in 455 W/m2
08:34 70.9 °F 58.7 °F 30.06 in Calm     65.3% 0.00 in 473 W/m2
08:39 71.2 °F 59 °F 30.06 in Calm     65.3% 0.00 in 489 W/m2
08:44 71.9 °F 59.4 °F 30.06 in Calm     64.8% 0.00 in 506 W/m2
08:49 72.4 °F 59.5 °F 30.05 in Calm     63.9% 0.00 in 522 W/m2
08:54 72.8 °F 59.6 °F 30.05 in Calm     63.4% 0.00 in 533 W/m2
08:59 73.2 °F 59.5 °F 30.05 in Calm     62.2% 0.00 in 548 W/m2
09:04 73.8 °F 59.6 °F 30.05 in Calm     61% 0.00 in 563 W/m2
09:09 74.3 °F 59.4 °F 30.05 in Calm     59.6% 0.00 in 578 W/m2
09:14 74.7 °F 59.8 °F 30.05 in Calm     59.8% 0.00 in 592 W/m2
09:19 75.1 °F 60.2 °F 30.05 in Calm     59.9% 0.00 in 603 W/m2
09:24 75.4 °F 60.1 °F 30.05 in Calm     59% 0.00 in 619 W/m2
09:29 75.8 °F 59.7 °F 30.05 in Calm     57.6% 0.00 in 633 W/m2
09:34 76.2 °F 60.4 °F 30.05 in Calm     58.1% 0.00 in 645 W/m2
09:39 76.7 °F 60.5 °F 30.05 in Calm     57.3% 0.00 in 659 W/m2
09:44 77.3 °F 60.3 °F 30.05 in Calm     55.8% 0.00 in 673 W/m2
09:49 77.7 °F 59.2 °F 30.05 in Calm     53.1% 0.00 in 686 W/m2
09:54 77.8 °F 60 °F 30.05 in Calm     54.3% 0.00 in 698 W/m2
09:59 78.2 °F 60.2 °F 30.05 in Calm     53.9% 0.00 in 714 W/m2
10:04 78.8 °F 60.3 °F 30.05 in Calm     53.2% 0.00 in 724 W/m2
10:09 79.4 °F 60.1 °F 30.04 in Calm     51.7% 0.00 in 737 W/m2
10:14 79.9 °F 60.3 °F 30.04 in Calm     51.3% 0.00 in 745 W/m2
10:19 80.2 °F 59.9 °F 30.04 in Calm     50.1% 0.00 in 756 W/m2
10:24 80 °F 59.9 °F 30.04 in Calm     50.3% 0.00 in 770 W/m2
10:29 80.2 °F 60.6 °F 30.04 in Calm     51.3% 0.00 in 779 W/m2
10:34 80.7 °F 60.4 °F 30.04 in Calm     50.2% 0.00 in 788 W/m2
10:39 81.2 °F 60.3 °F 30.03 in Calm     49.2% 0.00 in 798 W/m2
10:44 81.4 °F 60.2 °F 30.03 in Calm     48.5% 0.00 in 809 W/m2
10:49 81.7 °F 59.3 °F 30.03 in Calm     46.6% 0.00 in 833 W/m2
10:54 81.9 °F 59.6 °F 30.03 in Calm     46.8% 0.00 in 912 W/m2
10:59 81.9 °F 59.7 °F 30.03 in Calm     47% 0.00 in 946 W/m2
11:04 81.8 °F 58 °F 30.03 in Calm     44.3% 0.00 in 401 W/m2
11:09 81.7 °F 59.6 °F 30.03 in Calm     47.1% 0.00 in 974 W/m2
11:14 81.8 °F 58.9 °F 30.03 in Calm     45.8% 0.00 in 176 W/m2
11:19 81.4 °F 57.3 °F 30.03 in Calm     43.8% 0.00 in 995 W/m2
11:24 80.7 °F 55.2 °F 30.02 in Calm     41.4% 0.00 in 997 W/m2
11:29 80.2 °F 55.8 °F 30.02 in Calm     43.1% 0.00 in 1013 W/m2
11:34 80 °F 53 °F 30.02 in Calm     39.3% 0.00 in 1042 W/m2
11:39 80.5 °F 54.4 °F 30.02 in Calm     40.6% 0.00 in 1090 W/m2
11:44 81.6 °F 55.3 °F 30.02 in Calm     40.5% 0.00 in 1090 W/m2
11:49 82.1 °F 54.7 °F 30.02 in Calm     39% 0.00 in 1069 W/m2
11:54 81.8 °F 56.3 °F 30.02 in Calm     41.7% 0.00 in 1051 W/m2
11:59 82 °F 55.1 °F 30.02 in Calm     39.7% 0.00 in 1051 W/m2
12:00 82 °F 54.6 °F 30.01 in Calm     39% 0.00 in 255 W/m2
12:09 81.9 °F 55.2 °F 30.01 in Calm     40% 0.00 in 1090 W/m2
12:14 81.5 °F 55.2 °F 30.01 in Calm     40.4% 0.00 in 390 W/m2
12:19 81.4 °F 56.5 °F 30.00 in Calm     42.6% 0.00 in 1187 W/m2
12:24 81.7 °F 56.3 °F 30.00 in Calm     41.9% 0.00 in 1211 W/m2
12:29 82.1 °F 57.2 °F 30.00 in Calm     42.7% 0.00 in 1211 W/m2
12:34 82.5 °F 57.8 °F 30.00 in Calm     43.1% 0.00 in 294 W/m2
12:39 82.5 °F 56.8 °F 30.00 in Calm     41.5% 0.00 in 1106 W/m2
12:44 82.5 °F 56.2 °F 30.00 in Calm     40.7% 0.00 in 1102 W/m2
12:49 82.3 °F 57 °F 30.00 in Calm     42.1% 0.00 in 181 W/m2
12:54 82 °F 56.9 °F 30.00 in Calm     42.3% 0.00 in 181 W/m2
12:59 82 °F 55.4 °F 30.00 in Calm     40.1% 0.00 in 1076 W/m2
13:04 82 °F 55.6 °F 30.00 in Calm     40.4% 0.00 in 478 W/m2
13:09 81.9 °F 55.6 °F 29.99 in Calm     40.5% 0.00 in 566 W/m2
13:14 81.9 °F 56.5 °F 29.99 in Calm     41.9% 0.00 in 566 W/m2
13:19 81.9 °F 56.3 °F 29.99 in Calm     41.6% 0.00 in 956 W/m2
13:24 82 °F 55.7 °F 29.99 in Calm     40.5% 0.00 in 995 W/m2
13:29 82.5 °F 57.9 °F 29.99 in Calm     43.2% 0.00 in 1063 W/m2
13:34 83.4 °F 57.4 °F 29.99 in Calm     41.2% 0.00 in 1041 W/m2
13:39 84.1 °F 57.1 °F 29.99 in Calm     39.8% 0.00 in 381 W/m2
13:44 84.1 °F 56.5 °F 29.99 in Calm     39.1% 0.00 in 1102 W/m2
13:49 84 °F 57.8 °F 29.99 in Calm     41% 0.00 in 1065 W/m2
13:54 84.5 °F 57.3 °F 29.99 in Calm     39.6% 0.00 in 1005 W/m2
13:59 84.9 °F 56.8 °F 29.98 in Calm     38.3% 0.00 in 844 W/m2
14:04 84.8 °F 56.3 °F 29.98 in Calm     37.9% 0.00 in 1034 W/m2
14:09 84.6 °F 57.4 °F 29.98 in Calm     39.6% 0.00 in 1092 W/m2
14:14 84.6 °F 56.4 °F 29.98 in Calm     38.2% 0.00 in 281 W/m2
14:19 84.2 °F 56.5 °F 29.98 in Calm     38.9% 0.00 in 1049 W/m2
14:24 84.2 °F 57.1 °F 29.98 in Calm     39.8% 0.00 in 1037 W/m2
14:29 84.7 °F 57.9 °F 29.98 in Calm     40.2% 0.00 in 1076 W/m2
14:34 85.4 °F 57 °F 29.98 in Calm     38.1% 0.00 in 1141 W/m2
14:39 85.8 °F 56.6 °F 29.97 in Calm     37.1% 0.00 in 410 W/m2
14:44 85.8 °F 58.3 °F 29.97 in Calm     39.5% 0.00 in 891 W/m2
14:49 85.9 °F 57.1 °F 29.97 in Calm     37.7% 0.00 in 891 W/m2
14:54 85.8 °F 56.4 °F 29.97 in Calm     36.8% 0.00 in 283 W/m2
14:59 85.5 °F 56.8 °F 29.97 in Calm     37.7% 0.00 in 981 W/m2
15:04 85.2 °F 56.9 °F 29.97 in Calm     38.1% 0.00 in 967 W/m2
15:09 85.1 °F 56 °F 29.96 in Calm     37.2% 0.00 in 758 W/m2
15:14 84.6 °F 56.6 °F 29.96 in Calm     38.5% 0.00 in 877 W/m2
15:19 84.5 °F 56.3 °F 29.96 in Calm     38.2% 0.00 in 795 W/m2
15:24 84.6 °F 56.7 °F 29.96 in Calm     38.6% 0.00 in 547 W/m2
15:29 84.7 °F 56.5 °F 29.96 in Calm     38.3% 0.00 in 863 W/m2
15:34 84.7 °F 56.7 °F 29.96 in Calm     38.5% 0.00 in 853 W/m2
15:39 84.9 °F 57.2 °F 29.96 in Calm     38.9% 0.00 in 851 W/m2
15:44 85.2 °F 57.4 °F 29.96 in Calm     39% 0.00 in 805 W/m2
15:49 85.5 °F 57 °F 29.96 in Calm     38% 0.00 in 870 W/m2
15:54 86 °F 56.3 °F 29.96 in Calm     36.4% 0.00 in 738 W/m2
15:59 86.1 °F 56.2 °F 29.96 in Calm     36.2% 0.00 in 765 W/m2
16:00 86 °F 56.7 °F 29.96 in Calm     37% 0.00 in 693 W/m2
16:09 85.3 °F 56.5 °F 29.96 in Calm     37.6% 0.00 in 680 W/m2
16:14 84.9 °F 56.8 °F 29.96 in Calm     38.4% 0.00 in 510 W/m2
16:19 84.7 °F 57.5 °F 29.96 in Calm     39.6% 0.00 in 257 W/m2
16:24 84.7 °F 57 °F 29.96 in Calm     39% 0.00 in 251 W/m2
16:29 84.7 °F 57.2 °F 29.96 in Calm     39.2% 0.00 in 232 W/m2
16:34 84.4 °F 56.5 °F 29.96 in Calm     38.6% 0.00 in 223 W/m2
16:39 84.1 °F 56.5 °F 29.96 in Calm     39% 0.00 in 202 W/m2
16:44 83.7 °F 56.5 °F 29.96 in Calm     39.6% 0.00 in 181 W/m2
16:49 83.4 °F 56.9 °F 29.96 in Calm     40.5% 0.00 in 197 W/m2
16:54 83.2 °F 56.8 °F 29.96 in Calm     40.6% 0.00 in 192 W/m2
16:59 82.7 °F 56 °F 29.96 in Calm     40% 0.00 in 148 W/m2
17:04 82.1 °F 56.3 °F 29.96 in Calm     41.3% 0.00 in 144 W/m2
17:09 81.8 °F 55.9 °F 29.96 in Calm     41.1% 0.00 in 148 W/m2
17:14 81.5 °F 56.3 °F 29.96 in Calm     42.2% 0.00 in 149 W/m2
17:19 81.4 °F 56.2 °F 29.96 in Calm     42.1% 0.00 in 137 W/m2
17:24 81.4 °F 56.3 °F 29.96 in Calm     42.3% 0.00 in 120 W/m2
17:29 81.4 °F 56.1 °F 29.96 in Calm     42% 0.00 in 97 W/m2
17:34 81.5 °F 56.4 °F 29.96 in Calm     42.2% 0.00 in 95 W/m2
17:39 81.4 °F 56.2 °F 29.96 in Calm     42% 0.00 in 91 W/m2
17:44 81.4 °F 56.1 °F 29.96 in Calm     42% 0.00 in 90 W/m2
17:49 81.4 °F 56.2 °F 29.96 in Calm     42.1% 0.00 in 81 W/m2
17:54 81.3 °F 56.7 °F 29.96 in Calm     43.1% 0.00 in 77 W/m2
17:59 81.2 °F 56.3 °F 29.96 in Calm     42.5% 0.00 in 76 W/m2
18:04 81.2 °F 56.1 °F 29.96 in Calm     42.2% 0.00 in 76 W/m2
18:09 81.2 °F 56.4 °F 29.96 in Calm     42.6% 0.00 in 74 W/m2
18:14 81.1 °F 56 °F 29.96 in Calm     42.2% 0.00 in 70 W/m2
18:19 80.9 °F 56 °F 29.96 in Calm     42.5% 0.00 in 70 W/m2
18:24 80.6 °F 55.8 °F 29.96 in Calm     42.5% 0.00 in 72 W/m2
18:29 80.3 °F 55.8 °F 29.96 in Calm     42.9% 0.00 in 77 W/m2
18:34 80.2 °F 55.8 °F 29.96 in Calm     43.2% 0.00 in 79 W/m2
18:39 80.1 °F 56.2 °F 29.96 in Calm     44% 0.00 in 79 W/m2
18:44 80 °F 56.3 °F 29.96 in Calm     44.2% 0.00 in 77 W/m2
18:49 79.8 °F 56.2 °F 29.96 in Calm     44.3% 0.00 in 72 W/m2
18:54 79.5 °F 56.5 °F 29.97 in Calm     45.3% 0.00 in 67 W/m2
18:59 79.1 °F 56.7 °F 29.97 in Calm     46.2% 0.00 in 60 W/m2
19:04 78.8 °F 57.4 °F 29.96 in Calm     47.9% 0.00 in 51 W/m2
19:09 78.5 °F 57.7 °F 29.97 in Calm     48.8% 0.00 in 44 W/m2
19:14 78.3 °F 57.5 °F 29.97 in Calm     49% 0.00 in 37 W/m2
19:19 78 °F 57.9 °F 29.97 in Calm     50% 0.00 in 30 W/m2
19:24 77.9 °F 57.8 °F 29.97 in Calm     50.1% 0.00 in 25 W/m2
19:29 77.7 °F 57.9 °F 29.97 in Calm     50.6% 0.00 in 19 W/m2
19:34 77.4 °F 57.8 °F 29.97 in Calm     50.8% 0.00 in 16 W/m2
19:39 77.2 °F 57.2 °F 29.97 in Calm     50.1% 0.00 in 12 W/m2
19:44 76.9 °F 57.1 °F 29.97 in Calm     50.4% 0.00 in 9 W/m2
19:49 76.6 °F 56.7 °F 29.97 in Calm   1 mph 50.2% 0.00 in 7 W/m2
19:54 76.3 °F 56.5 °F 29.97 in Calm   1 mph 50.3% 0.00 in 0 W/m2
19:59 76.1 °F 56.4 °F 29.97 in Calm   1 mph 50.6% 0.00 in 0 W/m2
20:00 75.9 °F 56.5 °F 29.97 in Calm   1 mph 51% 0.00 in 0 W/m2
20:09 75.6 °F 56.2 °F 29.97 in Calm     51.1% 0.00 in 0 W/m2
20:14 75.3 °F 56.5 °F 29.98 in Calm     52% 0.00 in 0 W/m2
20:19 75.1 °F 56.3 °F 29.98 in Calm     52% 0.00 in 0 W/m2
20:24 74.9 °F 56.2 °F 29.98 in Calm     52.2% 0.00 in 0 W/m2
20:29 74.7 °F 56.5 °F 29.98 in Calm     53% 0.00 in 0 W/m2
20:34 74.6 °F 56.3 °F 29.98 in Calm     53% 0.00 in 0 W/m2
20:39 74.4 °F 56.1 °F 29.98 in Calm     53% 0.00 in 0 W/m2
20:44 74.2 °F 56.3 °F 29.98 in Calm     53.7% 0.00 in 0 W/m2
20:49 73.9 °F 56.3 °F 29.98 in Calm     54% 0.00 in 0 W/m2
20:54 73.7 °F 56.4 °F 29.99 in WNW 0.1 mph 2 mph 54.7% 0.00 in 0 W/m2
20:59 73.5 °F 56.3 °F 29.99 in Calm   2 mph 55% 0.00 in 0 W/m2
21:04 73.3 °F 56.1 °F 29.99 in Calm   2 mph 55% 0.00 in 0 W/m2
21:09 73.1 °F 56.1 °F 29.99 in Calm     55.3% 0.00 in 0 W/m2
21:14 72.9 °F 56.3 °F 29.99 in Calm     56% 0.00 in 0 W/m2
21:19 72.7 °F 56.2 °F 29.99 in Calm     56% 0.00 in 0 W/m2
21:24 72.6 °F 56.5 °F 29.99 in Calm     57% 0.00 in 0 W/m2
21:29 72.4 °F 56.3 °F 29.99 in Calm     57% 0.00 in 0 W/m2
21:34 72.3 °F 56.2 °F 29.99 in Calm     57% 0.00 in 0 W/m2
21:39 72.1 °F 56.1 °F 29.99 in Calm     57.1% 0.00 in 0 W/m2
21:44 72 °F 56.4 °F 29.99 in Calm     58% 0.00 in 0 W/m2
21:49 71.8 °F 56.5 °F 29.99 in Calm     58.4% 0.00 in 0 W/m2
21:54 71.6 °F 56.6 °F 29.99 in Calm     59% 0.00 in 0 W/m2
21:59 71.5 °F 56.4 °F 29.99 in Calm     59% 0.00 in 0 W/m2
22:04 71.3 °F 56.2 °F 29.99 in Calm     59% 0.00 in 0 W/m2
22:09 71.1 °F 56.3 °F 29.99 in Calm     59.6% 0.00 in 0 W/m2
22:14 70.9 °F 56.4 °F 29.99 in Calm     60% 0.00 in 0 W/m2
22:19 70.7 °F 56.3 °F 29.99 in Calm     60.2% 0.00 in 0 W/m2
22:24 70.5 °F 56.4 °F 29.99 in Calm     61% 0.00 in 0 W/m2
22:29 70.3 °F 56.3 °F 30.00 in Calm     61.2% 0.00 in 0 W/m2
22:34 70 °F 56.4 °F 30.00 in Calm     62% 0.00 in 0 W/m2
22:39 69.8 °F 56.4 °F 29.99 in Calm     62.5% 0.00 in 0 W/m2
22:44 69.6 °F 56.4 °F 29.99 in Calm     63% 0.00 in 0 W/m2
22:49 69.3 °F 56.6 °F 29.99 in Calm     63.8% 0.00 in 0 W/m2
22:54 69.1 °F 56.4 °F 29.99 in Calm     64% 0.00 in 0 W/m2
22:59 68.8 °F 56.5 °F 30.00 in Calm     64.7% 0.00 in 0 W/m2
23:04 68.6 °F 56.6 °F 30.00 in Calm     65.6% 0.00 in 0 W/m2
23:09 68.4 °F 56.6 °F 30.00 in Calm     66% 0.00 in 0 W/m2
23:14 68.3 °F 56.8 °F 30.00 in Calm     66.8% 0.00 in 0 W/m2
23:19 68.1 °F 56.9 °F 29.99 in Calm     67.5% 0.00 in 0 W/m2
23:24 67.9 °F 57 °F 30.00 in Calm     68% 0.00 in 0 W/m2
23:29 67.7 °F 56.8 °F 30.00 in Calm     68.1% 0.00 in 0 W/m2
23:34 67.5 °F 57 °F 30.00 in Calm     69% 0.00 in 0 W/m2
23:39 67.4 °F 57.2 °F 30.00 in Calm     69.7% 0.00 in 0 W/m2
23:44 67.3 °F 57.2 °F 30.00 in Calm     70% 0.00 in 0 W/m2
23:49 67.1 °F 57 °F 30.00 in Calm     70% 0.00 in 0 W/m2
23:54 67 °F 56.9 °F 30.00 in Calm     70% 0.00 in 0 W/m2
23:59 66.8 °F 57 °F 30.00 in Calm     70.6% 0.00 in 0 W/m2
Hartford County Weather
Compliments of Weather Underground - 4 mb